createdAt,value
2022-09-10T00:00:42.238Z,50.35
2022-09-10T00:01:42.262Z,62.59
2022-09-10T00:02:42.235Z,50.96
2022-09-10T00:03:42.245Z,58.59
2022-09-10T00:04:42.239Z,54.49
2022-09-10T00:05:42.199Z,46.78
2022-09-10T00:06:43.187Z,57.52
2022-09-10T00:07:42.243Z,56.75
2022-09-10T00:08:42.183Z,64.60
2022-09-10T00:09:42.166Z,53.46
2022-09-10T00:10:42.162Z,48.15
2022-09-10T00:11:42.152Z,50.69
2022-09-10T00:12:42.176Z,60.63
2022-09-10T00:13:42.142Z,60.15
2022-09-10T00:14:42.170Z,56.22
2022-09-10T00:17:50.611Z,54.06
2022-09-10T00:18:51.354Z,58.01
2022-09-10T00:19:50.570Z,64.43
2022-09-10T00:20:50.577Z,48.19
2022-09-10T00:21:50.567Z,60.03
2022-09-10T00:22:50.587Z,54.60
2022-09-10T00:23:50.550Z,59.37
2022-09-10T00:24:50.534Z,57.80
2022-09-10T00:25:50.599Z,54.00
2022-09-10T00:26:51.331Z,58.45
2022-09-10T00:28:22.958Z,48.97
2022-09-10T00:28:50.518Z,46.38
2022-09-10T00:29:50.526Z,53.69
2022-09-10T00:30:50.514Z,52.20
2022-09-10T00:31:50.566Z,49.21
2022-09-10T00:32:50.495Z,48.00
2022-09-10T00:33:50.509Z,61.49
2022-09-10T00:34:50.489Z,47.57
2022-09-10T00:35:50.614Z,49.08
2022-09-10T00:36:50.495Z,61.02
2022-09-10T00:37:50.526Z,49.67
2022-09-10T00:38:50.482Z,61.81
2022-09-10T00:39:50.510Z,47.88
2022-09-10T00:40:50.455Z,47.74
2022-09-10T00:41:50.447Z,49.06
2022-09-10T00:42:50.443Z,48.37
2022-09-10T00:43:50.443Z,54.50
2022-09-10T00:44:50.446Z,53.19
2022-09-10T00:45:50.474Z,47.92
2022-09-10T00:46:50.415Z,48.41
2022-09-10T00:47:50.402Z,60.16
2022-09-10T00:48:50.474Z,58.10
2022-09-10T00:49:50.382Z,55.41
2022-09-10T00:50:50.414Z,47.51
2022-09-10T00:51:50.378Z,47.86
2022-09-10T00:52:50.399Z,54.98
2022-09-10T00:53:50.394Z,47.97
2022-09-10T00:54:50.377Z,48.01
2022-09-10T00:55:50.366Z,47.10
2022-09-10T00:56:50.366Z,47.50
2022-09-10T00:57:50.340Z,57.76
2022-09-10T00:58:50.341Z,58.86
2022-09-10T00:59:50.354Z,49.02
2022-09-10T01:00:50.350Z,46.82
2022-09-10T01:01:50.511Z,46.00
2022-09-10T01:02:50.420Z,54.29
2022-09-10T01:03:50.306Z,60.58
2022-09-10T01:04:50.293Z,48.10
2022-09-10T01:05:50.281Z,53.78
2022-09-10T01:06:50.285Z,53.45
2022-09-10T01:07:50.286Z,48.37
2022-09-10T01:08:50.274Z,53.64
2022-09-10T01:09:50.274Z,59.21
2022-09-10T01:10:50.269Z,53.84
2022-09-10T01:11:50.253Z,51.58
2022-09-10T01:12:50.266Z,50.78
2022-09-10T01:13:50.227Z,57.08
2022-09-10T01:14:50.229Z,47.36
2022-09-10T01:15:50.250Z,48.19
2022-09-10T01:16:50.230Z,52.04
2022-09-10T01:17:50.254Z,57.30
2022-09-10T01:18:50.207Z,47.03
2022-09-10T01:19:50.211Z,47.63
2022-09-10T01:20:50.178Z,47.69
2022-09-10T01:21:50.205Z,54.39
2022-09-10T01:22:50.166Z,62.62
2022-09-10T01:23:50.178Z,52.35
2022-09-10T01:24:50.158Z,55.19
2022-09-10T01:25:50.170Z,47.81
2022-09-10T01:26:50.171Z,47.22
2022-09-10T01:27:50.154Z,46.96
2022-09-10T01:28:50.158Z,46.91
2022-09-10T01:29:50.112Z,48.91
2022-09-10T01:30:50.129Z,53.88
2022-09-10T01:31:50.104Z,48.58
2022-09-10T01:32:50.124Z,54.34
2022-09-10T01:33:50.104Z,54.23
2022-09-10T01:34:50.093Z,47.22
2022-09-10T01:35:50.108Z,46.93
2022-09-10T01:36:50.105Z,48.67
2022-09-10T01:37:50.102Z,62.97
2022-09-10T01:38:50.099Z,47.25
2022-09-10T01:39:50.122Z,46.81
2022-09-10T01:40:50.096Z,48.09
2022-09-10T01:41:50.044Z,46.77
2022-09-10T01:42:50.055Z,50.79
2022-09-10T01:43:50.068Z,60.92
2022-09-10T01:44:50.069Z,62.50
2022-09-10T01:45:50.080Z,59.24
2022-09-10T01:46:50.024Z,51.19
2022-09-10T01:47:50.040Z,47.20
2022-09-10T01:48:50.021Z,47.06
2022-09-10T01:49:50.032Z,54.38
2022-09-10T01:50:50.056Z,48.67
2022-09-10T01:51:49.996Z,48.46
2022-09-10T01:52:49.993Z,55.93
2022-09-10T01:53:49.996Z,59.85
2022-09-10T01:54:49.988Z,55.13
2022-09-10T01:55:49.997Z,47.28
2022-09-10T01:56:49.985Z,47.78
2022-09-10T01:57:50.001Z,57.19
2022-09-10T01:58:49.954Z,59.25
2022-09-10T01:59:49.949Z,47.92
2022-09-10T02:00:49.951Z,47.48
2022-09-10T02:01:49.956Z,46.50
2022-09-10T02:02:49.936Z,46.81
2022-09-10T02:03:49.959Z,46.95
2022-09-10T02:04:49.921Z,48.12
2022-09-10T02:05:49.916Z,47.82
2022-09-10T02:06:49.916Z,47.85
2022-09-10T02:07:49.933Z,58.87
2022-09-10T02:08:49.881Z,46.95
2022-09-10T02:09:49.928Z,51.52
2022-09-10T02:10:49.912Z,49.73
2022-09-10T02:11:49.868Z,46.22
2022-09-10T02:12:49.889Z,47.25
2022-09-10T02:13:49.860Z,47.10
2022-09-10T02:14:49.884Z,48.17
2022-09-10T02:15:49.840Z,47.10
2022-09-10T02:16:49.854Z,47.16
2022-09-10T02:17:49.849Z,55.51
2022-09-10T02:18:49.837Z,48.95
2022-09-10T02:19:49.836Z,48.07
2022-09-10T02:20:49.801Z,47.42
2022-09-10T02:21:49.844Z,47.76
2022-09-10T02:22:49.853Z,50.93
2022-09-10T02:23:49.823Z,65.25
2022-09-10T02:24:49.800Z,52.31
2022-09-10T02:25:49.788Z,60.52
2022-09-10T02:26:49.772Z,49.02
2022-09-10T02:27:49.780Z,63.18
2022-09-10T02:28:49.787Z,50.29
2022-09-10T02:29:49.764Z,47.70
2022-09-10T02:30:49.792Z,55.47
2022-09-10T02:31:49.777Z,52.59
2022-09-10T02:32:49.748Z,49.10
2022-09-10T02:33:49.725Z,62.67
2022-09-10T02:34:49.740Z,48.64
2022-09-10T02:35:49.748Z,47.35
2022-09-10T02:36:49.711Z,51.72
2022-09-10T02:37:49.708Z,63.33
2022-09-10T02:38:49.697Z,48.18
2022-09-10T02:39:49.769Z,47.88
2022-09-10T02:40:49.687Z,47.90
2022-09-10T02:41:49.707Z,52.43
2022-09-10T02:42:49.692Z,55.74
2022-09-10T02:43:49.699Z,54.84
2022-09-10T02:44:49.693Z,47.55
2022-09-10T02:45:49.689Z,48.05
2022-09-10T02:46:49.672Z,56.62
2022-09-10T02:47:49.666Z,54.63
2022-09-10T02:48:49.643Z,57.19
2022-09-10T02:49:49.636Z,50.33
2022-09-10T02:50:49.651Z,48.60
2022-09-10T02:51:49.647Z,58.13
2022-09-10T02:52:49.607Z,48.63
2022-09-10T02:53:49.631Z,57.85
2022-09-10T02:54:49.608Z,47.27
2022-09-10T02:55:49.591Z,47.40
2022-09-10T02:56:49.626Z,50.47
2022-09-10T02:57:49.593Z,51.74
2022-09-10T02:58:49.602Z,62.16
2022-09-10T02:59:49.594Z,47.87
2022-09-10T03:00:49.640Z,58.15
2022-09-10T03:01:49.594Z,55.32
2022-09-10T03:02:49.587Z,56.08
2022-09-10T03:03:49.585Z,56.87
2022-09-10T03:04:49.546Z,54.59
2022-09-10T03:05:49.565Z,60.28
2022-09-10T03:06:49.558Z,52.56
2022-09-10T03:07:49.562Z,56.18
2022-09-10T03:08:49.539Z,55.00
2022-09-10T03:09:49.538Z,59.72
2022-09-10T03:10:49.534Z,48.24
2022-09-10T03:11:50.502Z,47.53
2022-09-10T03:12:49.486Z,54.26
2022-09-10T03:13:49.509Z,57.56
2022-09-10T03:14:49.477Z,61.34
2022-09-10T03:15:49.474Z,52.14
2022-09-10T03:16:49.466Z,52.77
2022-09-10T03:17:49.453Z,51.15
2022-09-10T03:18:49.465Z,51.75
2022-09-10T03:19:49.450Z,61.97
2022-09-10T03:20:49.451Z,62.04
2022-09-10T03:21:49.525Z,67.66
2022-09-10T03:22:49.421Z,63.14
2022-09-10T03:23:49.451Z,57.16
2022-09-10T03:24:49.460Z,58.17
2022-09-10T03:25:50.029Z,58.65
2022-09-10T03:26:51.374Z,55.37
2022-09-10T03:27:49.421Z,60.31
2022-09-10T03:28:49.401Z,53.95
2022-09-10T03:29:49.386Z,58.70
2022-09-10T03:30:49.394Z,48.95
2022-09-10T03:31:49.401Z,57.83
2022-09-10T03:32:49.361Z,64.59
2022-09-10T03:33:49.389Z,58.78
2022-09-10T03:34:49.356Z,58.85
2022-09-10T03:35:49.342Z,65.16
2022-09-10T03:36:49.358Z,60.95
2022-09-10T03:37:49.336Z,54.26
2022-09-10T03:38:49.346Z,59.02
2022-09-10T03:39:49.376Z,58.22
2022-09-10T03:40:49.332Z,55.46
2022-09-10T03:41:49.305Z,60.38
2022-09-10T03:42:49.300Z,57.14
2022-09-10T03:43:49.291Z,57.77
2022-09-10T03:44:49.296Z,58.43
2022-09-10T03:45:49.343Z,56.40
2022-09-10T03:46:49.304Z,54.73
2022-09-10T03:47:49.260Z,50.69
2022-09-10T03:48:53.273Z,63.26
2022-09-10T03:49:51.345Z,55.07
2022-09-10T03:50:49.249Z,56.21
2022-09-10T03:51:49.243Z,58.40
2022-09-10T03:52:49.259Z,54.19
2022-09-10T03:53:49.240Z,62.73
2022-09-10T03:54:49.234Z,59.48
2022-09-10T03:55:49.246Z,59.59
2022-09-10T03:56:49.218Z,60.59
2022-09-10T03:57:49.208Z,51.58
2022-09-10T03:58:49.284Z,66.45
2022-09-10T03:59:49.195Z,61.99
2022-09-10T04:00:49.382Z,57.02
2022-09-10T04:01:49.214Z,52.82
2022-09-10T04:02:49.215Z,63.25
2022-09-10T04:03:49.195Z,53.49
2022-09-10T04:04:49.162Z,59.53
2022-09-10T04:05:49.182Z,51.97
2022-09-10T04:06:49.163Z,53.22
2022-09-10T04:07:49.191Z,48.40
2022-09-10T04:08:49.142Z,55.01
2022-09-10T04:09:49.155Z,61.92
2022-09-10T04:10:49.187Z,56.18
2022-09-10T04:11:49.130Z,57.95
2022-09-10T04:12:49.137Z,63.46
2022-09-10T04:13:49.117Z,59.34
2022-09-10T04:14:49.130Z,57.21
2022-09-10T04:15:49.129Z,62.01
2022-09-10T04:16:49.149Z,57.50
2022-09-10T04:17:49.090Z,56.41
2022-09-10T04:18:49.114Z,55.20
2022-09-10T04:19:49.077Z,58.15
2022-09-10T04:20:49.134Z,58.99
2022-09-10T04:21:49.073Z,56.23
2022-09-10T04:22:49.057Z,65.92
2022-09-10T04:23:49.046Z,59.78
2022-09-10T04:24:49.058Z,67.53
2022-09-10T04:25:49.041Z,62.12
2022-09-10T04:26:49.043Z,57.44
2022-09-10T04:27:49.022Z,54.56
2022-09-10T04:28:49.015Z,65.63
2022-09-10T04:29:49.017Z,51.07
2022-09-10T04:30:49.107Z,58.32
2022-09-10T04:31:49.054Z,51.84
2022-09-10T04:32:49.000Z,66.34
2022-09-10T04:33:49.012Z,62.19
2022-09-10T04:34:48.985Z,63.95
2022-09-10T04:35:48.982Z,66.82
2022-09-10T04:36:48.981Z,63.93
2022-09-10T04:37:48.967Z,64.48
2022-09-10T04:38:48.971Z,63.17
2022-09-10T04:39:49.032Z,58.42
2022-09-10T04:40:48.950Z,65.19
2022-09-10T04:41:48.945Z,61.44
2022-09-10T04:42:48.946Z,65.21
2022-09-10T04:43:48.921Z,67.26
2022-09-10T04:44:48.934Z,65.30
2022-09-10T04:45:48.932Z,67.58
2022-09-10T04:46:48.929Z,56.31
2022-09-10T04:47:48.906Z,64.22
2022-09-10T04:48:48.913Z,68.36
2022-09-10T04:49:48.890Z,66.62
2022-09-10T04:51:14.392Z,55.87
2022-09-10T04:51:50.901Z,64.31
2022-09-10T04:52:48.869Z,71.28
2022-09-10T04:53:48.870Z,59.82
2022-09-10T04:54:49.064Z,63.88
2022-09-10T04:55:48.872Z,65.46
2022-09-10T04:56:48.854Z,56.77
2022-09-10T04:57:48.845Z,67.94
2022-09-10T04:58:48.837Z,56.21
2022-09-10T04:59:48.828Z,51.49
2022-09-10T05:00:48.876Z,60.13
2022-09-10T05:01:48.862Z,63.18
2022-09-10T05:02:48.820Z,67.37
2022-09-10T05:03:48.816Z,59.94
2022-09-10T05:04:48.804Z,68.67
2022-09-10T05:05:48.792Z,70.33
2022-09-10T05:06:48.906Z,63.54
2022-09-10T05:07:48.777Z,57.15
2022-09-10T05:08:48.780Z,61.27
2022-09-10T05:09:48.791Z,62.62
2022-09-10T05:10:48.770Z,62.15
2022-09-10T05:11:48.772Z,56.37
2022-09-10T05:12:48.772Z,63.54
2022-09-10T05:13:48.788Z,63.41
2022-09-10T05:14:48.740Z,64.84
2022-09-10T05:15:48.740Z,65.05
2022-09-10T05:16:48.776Z,64.74
2022-09-10T05:17:48.731Z,55.40
2022-09-10T05:18:48.728Z,62.27
2022-09-10T05:19:48.732Z,59.52
2022-09-10T05:20:48.733Z,68.70
2022-09-10T05:21:48.728Z,63.58
2022-09-10T05:22:48.707Z,60.95
2022-09-10T05:23:48.725Z,65.02
2022-09-10T05:24:48.690Z,58.36
2022-09-10T05:25:48.715Z,56.17
2022-09-10T05:26:48.680Z,63.29
2022-09-10T05:27:48.680Z,63.72
2022-09-10T05:28:48.692Z,62.35
2022-09-10T05:29:48.648Z,63.58
2022-09-10T05:30:51.667Z,61.63
2022-09-10T05:31:49.698Z,62.16
2022-09-10T05:32:48.707Z,64.40
2022-09-10T05:33:48.695Z,64.96
2022-09-10T05:34:48.629Z,62.07
2022-09-10T05:35:48.627Z,60.62
2022-09-10T05:36:48.671Z,57.90
2022-09-10T05:37:48.672Z,62.06
2022-09-10T05:38:48.604Z,61.68
2022-09-10T05:39:48.620Z,67.30
2022-09-10T05:40:48.600Z,51.74
2022-09-10T05:41:48.578Z,65.25
2022-09-10T05:42:48.584Z,65.78
2022-09-10T05:43:48.637Z,65.45
2022-09-10T05:44:48.565Z,67.77
2022-09-10T05:45:48.633Z,66.32
2022-09-10T05:46:48.592Z,60.70
2022-09-10T05:47:48.547Z,66.32
2022-09-10T05:48:48.583Z,66.53
2022-09-10T05:49:48.543Z,70.92
2022-09-10T05:50:48.522Z,70.36
2022-09-10T05:51:48.655Z,69.44
2022-09-10T05:52:48.501Z,68.30
2022-09-10T05:53:48.509Z,64.03
2022-09-10T05:54:48.532Z,65.12
2022-09-10T05:55:48.492Z,61.89
2022-09-10T05:56:48.476Z,69.71
2022-09-10T05:57:48.499Z,52.51
2022-09-10T05:58:48.491Z,69.56
2022-09-10T05:59:48.448Z,66.96
2022-09-10T06:00:48.450Z,66.86
2022-09-10T06:01:48.530Z,67.70
2022-09-10T06:02:48.604Z,67.01
2022-09-10T06:03:48.443Z,67.39
2022-09-10T06:04:48.431Z,69.39
2022-09-10T06:05:48.443Z,62.12
2022-09-10T06:06:48.414Z,67.38
2022-09-10T06:07:48.467Z,58.79
2022-09-10T06:08:48.436Z,67.00
2022-09-10T06:09:48.410Z,65.59
2022-09-10T06:10:48.419Z,69.13
2022-09-10T06:11:48.402Z,67.69
2022-09-10T06:12:48.403Z,69.64
2022-09-10T06:13:48.421Z,70.23
2022-09-10T06:14:48.367Z,69.54
2022-09-10T06:15:48.370Z,68.17
2022-09-10T06:16:48.440Z,65.68
2022-09-10T06:17:48.359Z,70.64
2022-09-10T06:18:48.448Z,68.84
2022-09-10T06:19:48.377Z,68.51
2022-09-10T06:20:48.349Z,70.02
2022-09-10T06:21:48.325Z,67.91
2022-09-10T06:22:48.346Z,67.30
2022-09-10T06:23:48.313Z,63.24
2022-09-10T06:24:48.354Z,67.30
2022-09-10T06:25:48.301Z,68.61
2022-09-10T06:26:48.809Z,71.65
2022-09-10T06:27:48.290Z,70.75
2022-09-10T06:28:48.301Z,68.91
2022-09-10T06:29:48.296Z,65.31
2022-09-10T06:30:57.960Z,66.17
2022-09-10T06:31:48.270Z,68.04
2022-09-10T06:32:48.266Z,70.22
2022-09-10T06:33:48.246Z,72.38
2022-09-10T06:34:48.290Z,65.39
2022-09-10T06:35:50.999Z,68.39
2022-09-10T06:36:50.244Z,71.79
2022-09-10T06:37:48.269Z,71.41
2022-09-10T06:38:48.225Z,65.87
2022-09-10T06:39:48.245Z,70.24
2022-09-10T06:40:48.239Z,74.49
2022-09-10T06:41:49.845Z,64.66
2022-09-10T06:42:49.201Z,70.27
2022-09-10T06:43:48.197Z,68.11
2022-09-10T06:44:48.431Z,70.14
2022-09-10T06:45:48.245Z,68.63
2022-09-10T06:47:25.851Z,70.35
2022-09-10T06:48:50.345Z,68.10
2022-09-10T06:49:48.163Z,73.06
2022-09-10T06:50:48.156Z,70.81
2022-09-10T06:51:48.204Z,66.47
2022-09-10T06:52:48.135Z,75.46
2022-09-10T06:53:48.128Z,72.19
2022-09-10T06:54:48.141Z,76.56
2022-09-10T06:55:48.139Z,73.20
2022-09-10T06:56:48.115Z,60.87
2022-09-10T06:57:48.126Z,73.34
2022-09-10T06:58:48.159Z,70.24
2022-09-10T06:59:48.103Z,64.84
2022-09-10T07:00:48.130Z,68.38
2022-09-10T07:01:48.191Z,68.95
2022-09-10T07:02:48.078Z,71.44
2022-09-10T07:03:48.070Z,70.44
2022-09-10T07:04:48.106Z,69.90
2022-09-10T07:05:48.073Z,71.75
2022-09-10T07:06:48.070Z,70.47
2022-09-10T07:07:48.048Z,69.97
2022-09-10T07:08:48.061Z,68.28
2022-09-10T07:09:48.033Z,69.99
2022-09-10T07:10:48.043Z,73.82
2022-09-10T07:11:48.031Z,71.02
2022-09-10T07:12:48.027Z,63.63
2022-09-10T07:13:48.058Z,69.86
2022-09-10T07:14:48.020Z,67.49
2022-09-10T07:15:48.042Z,75.27
2022-09-10T07:16:48.053Z,70.64
2022-09-10T07:17:48.001Z,72.80
2022-09-10T07:18:48.847Z,72.59
2022-09-10T07:19:48.909Z,72.67
2022-09-10T07:20:47.958Z,69.42
2022-09-10T07:21:47.968Z,75.55
2022-09-10T07:22:47.971Z,73.02
2022-09-10T07:23:47.955Z,74.12
2022-09-10T07:24:47.973Z,71.54
2022-09-10T07:25:47.931Z,73.39
2022-09-10T07:26:47.936Z,73.86
2022-09-10T07:27:47.929Z,69.71
2022-09-10T07:28:47.944Z,74.14
2022-09-10T07:29:47.904Z,68.97
2022-09-10T07:30:47.981Z,74.63
2022-09-10T07:31:47.895Z,71.29
2022-09-10T07:32:47.912Z,70.68
2022-09-10T07:33:47.915Z,73.13
2022-09-10T07:34:47.873Z,74.40
2022-09-10T07:35:47.861Z,70.72
2022-09-10T07:36:47.867Z,74.20
2022-09-10T07:37:47.865Z,73.55
2022-09-10T07:38:47.849Z,72.45
2022-09-10T07:39:47.882Z,70.70
2022-09-10T07:40:47.845Z,75.81
2022-09-10T07:41:47.841Z,72.13
2022-09-10T07:42:47.869Z,73.35
2022-09-10T07:43:47.811Z,73.00
2022-09-10T07:44:47.820Z,73.42
2022-09-10T07:45:47.846Z,70.70
2022-09-10T07:46:47.792Z,73.41
2022-09-10T07:47:48.418Z,73.85
2022-09-10T07:48:47.807Z,72.85
2022-09-10T07:49:47.762Z,74.46
2022-09-10T07:50:47.774Z,75.09
2022-09-10T07:51:47.766Z,74.99
2022-09-10T07:52:47.762Z,76.33
2022-09-10T07:53:50.782Z,71.86
2022-09-10T07:54:48.755Z,78.38
2022-09-10T07:55:47.734Z,72.77
2022-09-10T07:56:47.738Z,74.09
2022-09-10T07:57:47.766Z,67.79
2022-09-10T07:58:47.722Z,75.75
2022-09-10T07:59:47.710Z,72.23
2022-09-10T08:00:47.742Z,74.75
2022-09-10T08:01:47.730Z,69.49
2022-09-10T08:02:47.681Z,73.00
2022-09-10T08:03:47.690Z,76.18
2022-09-10T08:04:47.684Z,64.02
2022-09-10T08:05:48.083Z,66.23
2022-09-10T08:06:47.671Z,74.40
2022-09-10T08:07:47.655Z,73.88
2022-09-10T08:08:47.723Z,75.98
2022-09-10T08:09:47.635Z,71.12
2022-09-10T08:10:47.631Z,72.53
2022-09-10T08:11:47.627Z,72.15
2022-09-10T08:12:48.983Z,70.47
2022-09-10T08:13:47.610Z,72.64
2022-09-10T08:14:47.606Z,73.63
2022-09-10T08:15:47.619Z,72.38
2022-09-10T08:16:47.615Z,71.69
2022-09-10T08:17:48.419Z,74.84
2022-09-10T08:18:47.587Z,72.91
2022-09-10T08:19:47.586Z,73.49
2022-09-10T08:20:47.573Z,70.84
2022-09-10T08:21:47.563Z,72.58
2022-09-10T08:22:47.559Z,72.50
2022-09-10T08:23:47.543Z,74.08
2022-09-10T08:24:47.568Z,72.96
2022-09-10T08:25:47.555Z,72.95
2022-09-10T08:26:48.422Z,73.14
2022-09-10T08:27:47.583Z,71.59
2022-09-10T08:28:47.535Z,72.66
2022-09-10T08:29:47.523Z,73.72
2022-09-10T08:30:47.560Z,70.84
2022-09-10T08:31:47.494Z,71.16
2022-09-10T08:32:47.486Z,68.44
2022-09-10T08:33:47.479Z,73.46
2022-09-10T08:34:47.495Z,75.38
2022-09-10T08:35:48.694Z,70.69
2022-09-10T08:36:47.465Z,70.33
2022-09-10T08:37:47.472Z,72.33
2022-09-10T08:38:47.459Z,72.55
2022-09-10T08:39:47.507Z,71.83
2022-09-10T08:40:47.464Z,71.36
2022-09-10T08:41:47.447Z,74.44
2022-09-10T08:42:47.425Z,74.15
2022-09-10T08:43:47.447Z,75.34
2022-09-10T08:44:47.428Z,74.35
2022-09-10T08:45:47.445Z,72.83
2022-09-10T08:46:47.403Z,74.43
2022-09-10T08:47:47.419Z,69.32
2022-09-10T08:48:47.419Z,72.95
2022-09-10T08:49:47.405Z,71.74
2022-09-10T08:50:47.404Z,67.67
2022-09-10T08:51:47.401Z,70.95
2022-09-10T08:52:47.377Z,72.46
2022-09-10T08:53:47.397Z,72.36
2022-09-10T08:54:47.380Z,73.41
2022-09-10T08:55:48.997Z,72.37
2022-09-10T08:56:48.346Z,73.69
2022-09-10T08:57:47.357Z,73.52
2022-09-10T08:58:47.345Z,73.63
2022-09-10T08:59:47.330Z,70.65
2022-09-10T09:00:47.333Z,73.17
2022-09-10T09:01:47.466Z,70.65
2022-09-10T09:02:49.725Z,73.33
2022-09-10T09:03:48.397Z,76.11
2022-09-10T09:04:47.316Z,70.89
2022-09-10T09:05:47.298Z,71.66
2022-09-10T09:06:47.305Z,72.63
2022-09-10T09:07:47.294Z,72.51
2022-09-10T09:08:47.305Z,68.92
2022-09-10T09:09:47.330Z,71.64
2022-09-10T09:10:47.272Z,73.00
2022-09-10T09:11:47.283Z,70.18
2022-09-10T09:12:47.298Z,73.83
2022-09-10T09:13:47.249Z,71.90
2022-09-10T09:14:47.249Z,71.21
2022-09-10T09:15:47.266Z,72.31
2022-09-10T09:16:47.229Z,69.99
2022-09-10T09:17:47.265Z,71.15
2022-09-10T09:18:47.316Z,69.11
2022-09-10T09:19:47.219Z,72.62
2022-09-10T09:20:47.222Z,72.16
2022-09-10T09:21:47.233Z,71.67
2022-09-10T09:22:47.215Z,71.64
2022-09-10T09:24:09.382Z,74.51
2022-09-10T09:24:49.195Z,72.16
2022-09-10T09:25:47.177Z,72.18
2022-09-10T09:26:47.395Z,70.16
2022-09-10T09:27:47.176Z,71.92
2022-09-10T09:28:47.191Z,74.01
2022-09-10T09:29:47.168Z,70.48
2022-09-10T09:30:47.232Z,72.43
2022-09-10T09:31:47.160Z,69.77
2022-09-10T09:32:47.160Z,73.58
2022-09-10T09:33:47.137Z,71.11
2022-09-10T09:34:47.119Z,73.43
2022-09-10T09:35:47.130Z,74.32
2022-09-10T09:36:47.121Z,73.88
2022-09-10T09:37:47.135Z,71.67
2022-09-10T09:38:47.110Z,73.60
2022-09-10T09:39:47.153Z,72.07
2022-09-10T09:40:47.143Z,73.68
2022-09-10T09:41:47.095Z,73.21
2022-09-10T09:42:47.100Z,73.13
2022-09-10T09:43:47.080Z,67.98
2022-09-10T09:44:47.083Z,72.24
2022-09-10T09:45:47.097Z,72.97
2022-09-10T09:46:47.125Z,73.88
2022-09-10T09:47:47.076Z,72.69
2022-09-10T09:48:47.051Z,73.50
2022-09-10T09:49:47.057Z,70.39
2022-09-10T09:50:47.028Z,72.84
2022-09-10T09:51:47.024Z,72.00
2022-09-10T09:52:47.032Z,75.11
2022-09-10T09:53:49.396Z,75.11
2022-09-10T09:55:13.104Z,73.81
2022-09-10T09:55:49.022Z,70.71
2022-09-10T09:56:47.012Z,68.94
2022-09-10T09:57:46.995Z,73.09
2022-09-10T09:58:47.000Z,72.82
2022-09-10T09:59:46.979Z,69.39
2022-09-10T10:00:46.971Z,73.91
2022-09-10T10:01:47.119Z,72.87
2022-09-10T10:02:46.962Z,72.34
2022-09-10T10:03:46.967Z,73.13
2022-09-10T10:04:46.943Z,73.19
2022-09-10T10:05:46.963Z,73.18
2022-09-10T10:06:46.929Z,70.35
2022-09-10T10:07:46.949Z,73.42
2022-09-10T10:08:46.971Z,74.30
2022-09-10T10:09:46.920Z,68.58
2022-09-10T10:10:46.913Z,73.99
2022-09-10T10:11:46.936Z,70.33
2022-09-10T10:12:46.915Z,70.51
2022-09-10T10:13:47.984Z,71.37
2022-09-10T10:14:46.887Z,75.48
2022-09-10T10:15:46.922Z,71.05
2022-09-10T10:16:46.923Z,72.82
2022-09-10T10:17:46.863Z,72.02
2022-09-10T10:18:46.911Z,74.26
2022-09-10T10:19:46.863Z,72.56
2022-09-10T10:20:46.844Z,69.27
2022-09-10T10:21:46.835Z,73.47
2022-09-10T10:22:46.902Z,69.78
2022-09-10T10:23:46.843Z,72.52
2022-09-10T10:24:46.839Z,72.14
2022-09-10T10:25:46.860Z,74.13
2022-09-10T10:26:46.820Z,72.74
2022-09-10T10:27:46.836Z,71.14
2022-09-10T10:28:46.821Z,73.21
2022-09-10T10:29:46.837Z,71.58
2022-09-10T10:30:46.814Z,71.85
2022-09-10T10:31:46.785Z,72.78
2022-09-10T10:32:46.789Z,72.85
2022-09-10T10:33:46.782Z,72.15
2022-09-10T10:34:46.796Z,71.67
2022-09-10T10:35:46.760Z,71.76
2022-09-10T10:36:46.777Z,69.63
2022-09-10T10:37:46.756Z,71.59
2022-09-10T10:38:46.775Z,71.85
2022-09-10T10:39:46.777Z,65.46
2022-09-10T10:40:46.748Z,71.65
2022-09-10T10:41:46.794Z,70.08
2022-09-10T10:42:46.724Z,69.28
2022-09-10T10:43:46.704Z,72.32
2022-09-10T10:44:46.714Z,72.17
2022-09-10T10:45:46.714Z,68.74
2022-09-10T10:46:46.726Z,69.38
2022-09-10T10:47:46.793Z,71.69
2022-09-10T10:48:46.698Z,70.20
2022-09-10T10:49:46.687Z,71.97
2022-09-10T10:50:49.820Z,70.72
2022-09-10T10:51:48.666Z,70.53
2022-09-10T10:52:46.653Z,71.53
2022-09-10T10:53:46.654Z,70.34
2022-09-10T10:54:46.686Z,73.09
2022-09-10T10:55:46.692Z,72.66
2022-09-10T10:56:46.641Z,70.01
2022-09-10T10:57:46.622Z,68.74
2022-09-10T10:58:49.156Z,73.09
2022-09-10T10:59:46.619Z,71.01
2022-09-10T11:00:46.613Z,70.80
2022-09-10T11:01:46.780Z,72.34
2022-09-10T11:02:47.682Z,69.46
2022-09-10T11:03:46.591Z,67.75
2022-09-10T11:04:46.595Z,67.80
2022-09-10T11:05:46.601Z,68.13
2022-09-10T11:06:46.578Z,70.57
2022-09-10T11:07:46.630Z,70.93
2022-09-10T11:08:46.565Z,70.25
2022-09-10T11:09:46.600Z,71.69
2022-09-10T11:10:46.594Z,72.71
2022-09-10T11:11:46.531Z,73.33
2022-09-10T11:12:46.623Z,71.36
2022-09-10T11:13:46.547Z,69.07
2022-09-10T11:14:46.539Z,71.87
2022-09-10T11:15:46.545Z,72.02
2022-09-10T11:16:46.560Z,70.04
2022-09-10T11:17:46.511Z,72.69
2022-09-10T11:18:46.498Z,71.32
2022-09-10T11:19:46.494Z,71.62
2022-09-10T11:20:46.486Z,72.72
2022-09-10T11:21:46.498Z,73.33
2022-09-10T11:22:46.490Z,72.75
2022-09-10T11:23:46.465Z,72.06
2022-09-10T11:24:46.457Z,69.72
2022-09-10T11:25:46.453Z,72.22
2022-09-10T11:26:46.472Z,69.08
2022-09-10T11:27:46.439Z,71.50
2022-09-10T11:28:46.432Z,68.67
2022-09-10T11:29:46.444Z,68.00
2022-09-10T11:30:46.442Z,70.88
2022-09-10T11:31:46.450Z,73.19
2022-09-10T11:32:46.421Z,71.90
2022-09-10T11:33:46.413Z,74.26
2022-09-10T11:34:46.414Z,69.90
2022-09-10T11:35:46.400Z,72.52
2022-09-10T11:36:46.398Z,72.04
2022-09-10T11:37:46.391Z,61.60
2022-09-10T11:38:46.369Z,73.06
2022-09-10T11:39:46.377Z,71.06
2022-09-10T11:40:46.357Z,72.16
2022-09-10T11:41:46.340Z,70.06
2022-09-10T11:42:46.351Z,68.83
2022-09-10T11:43:46.348Z,73.46
2022-09-10T11:44:46.336Z,70.11
2022-09-10T11:45:46.314Z,70.56
2022-09-10T11:46:46.354Z,72.41
2022-09-10T11:47:46.326Z,70.25
2022-09-10T11:48:46.291Z,68.21
2022-09-10T11:49:46.303Z,71.81
2022-09-10T11:50:46.283Z,71.20
2022-09-10T11:51:46.273Z,70.44
2022-09-10T11:52:46.278Z,70.76
2022-09-10T11:53:46.297Z,71.73
2022-09-10T11:54:46.304Z,69.68
2022-09-10T11:55:46.247Z,70.84
2022-09-10T11:56:46.267Z,73.88
2022-09-10T11:57:46.239Z,70.89
2022-09-10T11:58:46.246Z,72.51
2022-09-10T11:59:46.232Z,74.03
2022-09-10T12:00:46.238Z,71.01
2022-09-10T12:01:46.279Z,71.73
2022-09-10T12:02:46.219Z,69.44
2022-09-10T12:03:46.228Z,69.94
2022-09-10T12:04:47.619Z,71.27
2022-09-10T12:05:47.198Z,71.72
2022-09-10T12:06:46.191Z,73.19
2022-09-10T12:07:46.189Z,71.96
2022-09-10T12:08:46.188Z,69.23
2022-09-10T12:09:46.166Z,71.72
2022-09-10T12:10:46.176Z,70.54
2022-09-10T12:11:46.156Z,70.28
2022-09-10T12:12:46.165Z,69.67
2022-09-10T12:13:46.146Z,73.71
2022-09-10T12:14:46.143Z,67.37
2022-09-10T12:15:46.144Z,71.20
2022-09-10T12:16:46.144Z,68.82
2022-09-10T12:17:46.104Z,70.97
2022-09-10T12:18:46.115Z,69.61
2022-09-10T12:19:46.109Z,70.92
2022-09-10T12:20:46.128Z,71.68
2022-09-10T12:21:46.093Z,72.26
2022-09-10T12:22:46.086Z,71.08
2022-09-10T12:23:46.093Z,73.24
2022-09-10T12:24:46.073Z,72.35
2022-09-10T12:25:46.089Z,72.58
2022-09-10T12:26:46.069Z,67.95
2022-09-10T12:27:46.042Z,67.79
2022-09-10T12:28:46.042Z,71.70
2022-09-10T12:29:46.035Z,73.49
2022-09-10T12:30:46.114Z,72.36
2022-09-10T12:31:46.049Z,74.10
2022-09-10T12:32:46.018Z,74.55
2022-09-10T12:34:17.958Z,70.74
2022-09-10T12:34:46.031Z,73.54
2022-09-10T12:35:45.997Z,72.00
2022-09-10T12:36:45.997Z,68.55
2022-09-10T12:37:45.981Z,72.67
2022-09-10T12:38:45.982Z,72.03
2022-09-10T12:39:46.021Z,71.39
2022-09-10T12:40:45.964Z,72.35
2022-09-10T12:41:45.969Z,72.19
2022-09-10T12:42:46.498Z,67.81
2022-09-10T12:43:45.945Z,71.77
2022-09-10T12:44:45.948Z,70.95
2022-09-10T12:45:45.940Z,72.11
2022-09-10T12:46:45.925Z,68.88
2022-09-10T12:47:45.929Z,72.49
2022-09-10T12:48:45.937Z,71.50
2022-09-10T12:49:45.917Z,72.10
2022-09-10T12:50:45.916Z,73.75
2022-09-10T12:51:45.906Z,70.56
2022-09-10T12:52:45.921Z,71.36
2022-09-10T12:53:45.901Z,71.39
2022-09-10T12:54:45.881Z,73.67
2022-09-10T12:55:45.901Z,72.25